sensor_id;sensor_type;location;lat;lon;timestamp;temperature;humidity
6930;DHT22;3504;52.616;13.238;2024-01-10T00:01:40;-8.30;77.62
6930;DHT22;3504;52.616;13.238;2024-01-10T00:06:44;-8.20;77.31
6930;DHT22;3504;52.616;13.238;2024-01-10T00:11:45;-8.16;77.01
6930;DHT22;3504;52.616;13.238;2024-01-10T00:16:45;-8.12;76.66
6930;DHT22;3504;52.616;13.238;2024-01-10T00:21:46;-8.09;76.55
6930;DHT22;3504;52.616;13.238;2024-01-10T00:26:46;-8.12;76.60
6930;DHT22;3504;52.616;13.238;2024-01-10T00:31:47;-8.07;76.51
6930;DHT22;3504;52.616;13.238;2024-01-10T00:36:47;-8.07;76.51
6930;DHT22;3504;52.616;13.238;2024-01-10T00:41:48;-8.02;76.30
6930;DHT22;3504;52.616;13.238;2024-01-10T00:46:48;-7.99;76.08
6930;DHT22;3504;52.616;13.238;2024-01-10T00:51:49;-8.02;76.11
6930;DHT22;3504;52.616;13.238;2024-01-10T00:56:49;-8.02;76.14
6930;DHT22;3504;52.616;13.238;2024-01-10T01:01:50;-7.99;76.11
6930;DHT22;3504;52.616;13.238;2024-01-10T01:06:51;-7.95;75.97
6930;DHT22;3504;52.616;13.238;2024-01-10T01:11:51;-8.06;75.79
6930;DHT22;3504;52.616;13.238;2024-01-10T01:16:52;-8.16;76.12
6930;DHT22;3504;52.616;13.238;2024-01-10T01:21:52;-8.19;76.70
6930;DHT22;3504;52.616;13.238;2024-01-10T01:26:53;-8.17;76.67
6930;DHT22;3504;52.616;13.238;2024-01-10T01:31:53;-8.17;76.56
6930;DHT22;3504;52.616;13.238;2024-01-10T01:36:54;-8.37;76.70
6930;DHT22;3504;52.616;13.238;2024-01-10T01:41:54;-8.32;77.11
6930;DHT22;3504;52.616;13.238;2024-01-10T01:46:55;-8.29;76.95
6930;DHT22;3504;52.616;13.238;2024-01-10T01:51:56;-8.23;76.83
6930;DHT22;3504;52.616;13.238;2024-01-10T01:56:56;-8.22;76.67
6930;DHT22;3504;52.616;13.238;2024-01-10T02:02:00;-8.33;76.32
6930;DHT22;3504;52.616;13.238;2024-01-10T02:07:03;-8.51;76.95
6930;DHT22;3504;52.616;13.238;2024-01-10T02:12:04;-8.84;78.22
6930;DHT22;3504;52.616;13.238;2024-01-10T02:17:05;-8.88;78.43
6930;DHT22;3504;52.616;13.238;2024-01-10T02:22:05;-8.92;78.41
6930;DHT22;3504;52.616;13.238;2024-01-10T02:27:06;-8.88;78.66
6930;DHT22;3504;52.616;13.238;2024-01-10T02:32:06;-8.91;78.36
6930;DHT22;3504;52.616;13.238;2024-01-10T02:37:09;-8.82;78.83
6930;DHT22;3504;52.616;13.238;2024-01-10T02:42:10;-8.82;77.96
6930;DHT22;3504;52.616;13.238;2024-01-10T02:47:12;-8.77;78.20
6930;DHT22;3504;52.616;13.238;2024-01-10T02:52:12;-8.78;78.46
6930;DHT22;3504;52.616;13.238;2024-01-10T02:57:13;-8.72;78.45
6930;DHT22;3504;52.616;13.238;2024-01-10T03:02:14;-8.68;78.32
6930;DHT22;3504;52.616;13.238;2024-01-10T03:07:14;-8.60;78.19
6930;DHT22;3504;52.616;13.238;2024-01-10T03:12:15;-8.56;77.58
6930;DHT22;3504;52.616;13.238;2024-01-10T03:17:15;-8.71;77.79
6930;DHT22;3504;52.616;13.238;2024-01-10T03:22:16;-8.87;78.66
6930;DHT22;3504;52.616;13.238;2024-01-10T03:27:17;-8.75;78.91
6930;DHT22;3504;52.616;13.238;2024-01-10T03:32:17;-8.67;78.51
6930;DHT22;3504;52.616;13.238;2024-01-10T03:37:18;-8.56;78.11
6930;DHT22;3504;52.616;13.238;2024-01-10T03:42:19;-8.53;77.62
6930;DHT22;3504;52.616;13.238;2024-01-10T03:47:19;-8.61;77.85
6930;DHT22;3504;52.616;13.238;2024-01-10T03:52:20;-8.53;77.89
6930;DHT22;3504;52.616;13.238;2024-01-10T03:57:20;-8.56;77.59
6930;DHT22;3504;52.616;13.238;2024-01-10T04:02:21;-8.58;77.98
6930;DHT22;3504;52.616;13.238;2024-01-10T04:07:21;-8.51;77.77
6930;DHT22;3504;52.616;13.238;2024-01-10T04:12:23;-8.48;77.19
6930;DHT22;3504;52.616;13.238;2024-01-10T04:17:24;-8.54;76.96
6930;DHT22;3504;52.616;13.238;2024-01-10T04:22:25;-8.84;77.84
6930;DHT22;3504;52.616;13.238;2024-01-10T04:27:26;-8.88;78.58
6930;DHT22;3504;52.616;13.238;2024-01-10T04:32:26;-8.80;78.61
6930;DHT22;3504;52.616;13.238;2024-01-10T04:37:27;-8.72;78.25
6930;DHT22;3504;52.616;13.238;2024-01-10T04:42:28;-8.70;77.90
6930;DHT22;3504;52.616;13.238;2024-01-10T04:47:29;-8.68;77.63
6930;DHT22;3504;52.616;13.238;2024-01-10T04:52:29;-8.74;77.48
6930;DHT22;3504;52.616;13.238;2024-01-10T04:57:30;-8.71;77.67
6930;DHT22;3504;52.616;13.238;2024-01-10T05:02:30;-8.68;77.47
6930;DHT22;3504;52.616;13.238;2024-01-10T05:07:31;-8.68;77.32
6930;DHT22;3504;52.616;13.238;2024-01-10T05:12:31;-8.62;77.12
6930;DHT22;3504;52.616;13.238;2024-01-10T05:17:33;-8.64;77.09
6930;DHT22;3504;52.616;13.238;2024-01-10T05:22:35;-8.78;77.06
6930;DHT22;3504;52.616;13.238;2024-01-10T05:27:35;-8.89;77.56
6930;DHT22;3504;52.616;13.238;2024-01-10T05:32:36;-8.92;77.88
6930;DHT22;3504;52.616;13.238;2024-01-10T05:37:37;-8.85;77.96
6930;DHT22;3504;52.616;13.238;2024-01-10T05:42:37;-8.82;77.71
6930;DHT22;3504;52.616;13.238;2024-01-10T05:47:38;-8.78;77.52
6930;DHT22;3504;52.616;13.238;2024-01-10T05:52:38;-8.87;76.89
6930;DHT22;3504;52.616;13.238;2024-01-10T05:57:39;-9.13;77.54
6930;DHT22;3504;52.616;13.238;2024-01-10T06:02:40;-9.21;78.51
6930;DHT22;3504;52.616;13.238;2024-01-10T06:07:40;-9.22;78.04
6930;DHT22;3504;52.616;13.238;2024-01-10T06:12:41;-9.21;78.53
6930;DHT22;3504;52.616;13.238;2024-01-10T06:17:42;-9.22;78.06
6930;DHT22;3504;52.616;13.238;2024-01-10T06:22:42;-9.46;78.31
6930;DHT22;3504;52.616;13.238;2024-01-10T06:27:42;-9.46;79.14
6930;DHT22;3504;52.616;13.238;2024-01-10T06:32:43;-9.54;78.44
6930;DHT22;3504;52.616;13.238;2024-01-10T06:37:44;-9.57;79.13
6930;DHT22;3504;52.616;13.238;2024-01-10T06:42:44;-9.54;78.89
6930;DHT22;3504;52.616;13.238;2024-01-10T06:47:45;-9.54;78.39
6930;DHT22;3504;52.616;13.238;2024-01-10T06:52:46;-9.66;78.41
6930;DHT22;3504;52.616;13.238;2024-01-10T06:57:46;-9.66;78.48
6930;DHT22;3504;52.616;13.238;2024-01-10T07:02:49;-9.53;78.90
6930;DHT22;3504;52.616;13.238;2024-01-10T07:07:49;-9.42;78.45
6930;DHT22;3504;52.616;13.238;2024-01-10T07:12:50;-9.39;78.23
6930;DHT22;3504;52.616;13.238;2024-01-10T07:17:51;-9.32;77.74
6930;DHT22;3504;52.616;13.238;2024-01-10T07:22:51;-9.32;77.54
6930;DHT22;3504;52.616;13.238;2024-01-10T07:27:52;-9.43;77.56
6930;DHT22;3504;52.616;13.238;2024-01-10T07:32:52;-9.47;77.67
6930;DHT22;3504;52.616;13.238;2024-01-10T07:37:53;-9.53;77.68
6930;DHT22;3504;52.616;13.238;2024-01-10T07:42:53;-9.66;77.77
6930;DHT22;3504;52.616;13.238;2024-01-10T07:47:54;-9.71;78.20
6930;DHT22;3504;52.616;13.238;2024-01-10T07:52:55;-9.73;78.55
6930;DHT22;3504;52.616;13.238;2024-01-10T07:57:55;-9.64;78.73
6930;DHT22;3504;52.616;13.238;2024-01-10T08:02:56;-9.57;79.01
6930;DHT22;3504;52.616;13.238;2024-01-10T08:07:58;-9.50;79.04
6930;DHT22;3504;52.616;13.238;2024-01-10T08:12:58;-9.40;79.21
6930;DHT22;3504;52.616;13.238;2024-01-10T08:18:00;-9.29;79.30
6930;DHT22;3504;52.616;13.238;2024-01-10T08:23:03;-9.21;79.63
6930;DHT22;3504;52.616;13.238;2024-01-10T08:28:03;-9.05;79.89
6930;DHT22;3504;52.616;13.238;2024-01-10T08:33:04;-8.84;79.87
6930;DHT22;3504;52.616;13.238;2024-01-10T08:38:05;-8.72;80.01
6930;DHT22;3504;52.616;13.238;2024-01-10T08:43:07;-8.53;80.13
6930;DHT22;3504;52.616;13.238;2024-01-10T08:48:08;-8.40;80.19
6930;DHT22;3504;52.616;13.238;2024-01-10T08:53:10;-8.19;79.96
6930;DHT22;3504;52.616;13.238;2024-01-10T08:58:13;-7.99;79.75
6930;DHT22;3504;52.616;13.238;2024-01-10T09:03:13;-7.78;79.39
6930;DHT22;3504;52.616;13.238;2024-01-10T09:08:14;-7.54;79.19
6930;DHT22;3504;52.616;13.238;2024-01-10T09:13:16;-7.30;78.62
6930;DHT22;3504;52.616;13.238;2024-01-10T09:18:16;-7.07;77.73
6930;DHT22;3504;52.616;13.238;2024-01-10T09:23:17;-6.79;77.66
6930;DHT22;3504;52.616;13.238;2024-01-10T09:28:19;-6.52;76.39
6930;DHT22;3504;52.616;13.238;2024-01-10T09:33:20;-6.24;76.47
6930;DHT22;3504;52.616;13.238;2024-01-10T09:38:20;-5.91;75.26
6930;DHT22;3504;52.616;13.238;2024-01-10T09:43:24;-5.62;74.38
6930;DHT22;3504;52.616;13.238;2024-01-10T09:48:25;-5.31;73.27
6930;DHT22;3504;52.616;13.238;2024-01-10T09:53:27;-5.10;72.49
6930;DHT22;3504;52.616;13.238;2024-01-10T09:58:27;-4.88;70.54
6930;DHT22;3504;52.616;13.238;2024-01-10T10:03:28;-4.64;70.19
6930;DHT22;3504;52.616;13.238;2024-01-10T10:08:29;-4.41;69.33
6930;DHT22;3504;52.616;13.238;2024-01-10T10:13:30;-4.11;69.52
6930;DHT22;3504;52.616;13.238;2024-01-10T10:18:31;-3.87;67.57
6930;DHT22;3504;52.616;13.238;2024-01-10T10:23:32;-3.66;67.46
6930;DHT22;3504;52.616;13.238;2024-01-10T10:28:33;-3.42;66.32
6930;DHT22;3504;52.616;13.238;2024-01-10T10:33:33;-3.13;66.56
6930;DHT22;3504;52.616;13.238;2024-01-10T10:38:35;-2.99;63.60
6930;DHT22;3504;52.616;13.238;2024-01-10T10:43:38;-2.83;64.32
6930;DHT22;3504;52.616;13.238;2024-01-10T10:48:39;-2.64;63.91
6930;DHT22;3504;52.616;13.238;2024-01-10T10:53:42;-2.44;62.93
6930;DHT22;3504;52.616;13.238;2024-01-10T10:58:46;-2.22;62.20
6930;DHT22;3504;52.616;13.238;2024-01-10T11:03:47;-2.26;59.19
6930;DHT22;3504;52.616;13.238;2024-01-10T11:09:00;-2.12;60.84
6930;DHT22;3504;52.616;13.238;2024-01-10T11:20:13;-1.92;60.17
6930;DHT22;3504;52.616;13.238;2024-01-10T11:25:15;-2.09;58.27
6930;DHT22;3504;52.616;13.238;2024-01-10T11:30:35;-2.09;59.73
6930;DHT22;3504;52.616;13.238;2024-01-10T11:35:38;-2.09;58.39
6930;DHT22;3504;52.616;13.238;2024-01-10T11:40:47;-1.95;59.03
6930;DHT22;3504;52.616;13.238;2024-01-10T11:45:55;-1.81;58.96
6930;DHT22;3504;52.616;13.238;2024-01-10T11:50:57;-1.68;58.36
6930;DHT22;3504;52.616;13.238;2024-01-10T11:56:10;-1.58;58.02
6930;DHT22;3504;52.616;13.238;2024-01-10T12:01:12;-1.46;58.04
6930;DHT22;3504;52.616;13.238;2024-01-10T12:06:14;-1.40;57.91
6930;DHT22;3504;52.616;13.238;2024-01-10T12:11:16;-1.43;56.14
6930;DHT22;3504;52.616;13.238;2024-01-10T12:16:16;-1.52;55.55
6930;DHT22;3504;52.616;13.238;2024-01-10T12:21:17;-1.52;56.74
6930;DHT22;3504;52.616;13.238;2024-01-10T12:26:19;-1.40;56.60
6930;DHT22;3504;52.616;13.238;2024-01-10T12:31:19;-1.47;56.43
6930;DHT22;3504;52.616;13.238;2024-01-10T12:36:20;-1.51;56.28
6930;DHT22;3504;52.616;13.238;2024-01-10T12:41:20;-1.51;56.49
6930;DHT22;3504;52.616;13.238;2024-01-10T12:46:21;-1.43;57.17
6930;DHT22;3504;52.616;13.238;2024-01-10T12:51:24;-1.46;54.03
6930;DHT22;3504;52.616;13.238;2024-01-10T12:56:25;-1.33;55.93
6930;DHT22;3504;52.616;13.238;2024-01-10T13:01:25;-1.27;55.74
6930;DHT22;3504;52.616;13.238;2024-01-10T13:06:26;-1.23;54.88
6930;DHT22;3504;52.616;13.238;2024-01-10T13:11:26;-1.26;54.06
6930;DHT22;3504;52.616;13.238;2024-01-10T13:16:27;-1.17;55.43
6930;DHT22;3504;52.616;13.238;2024-01-10T13:21:27;-1.17;54.51
6930;DHT22;3504;52.616;13.238;2024-01-10T13:26:28;-1.16;55.25
6930;DHT22;3504;52.616;13.238;2024-01-10T13:31:29;-1.15;55.54
6930;DHT22;3504;52.616;13.238;2024-01-10T13:36:29;-1.13;53.86
6930;DHT22;3504;52.616;13.238;2024-01-10T13:41:30;-1.10;54.64
6930;DHT22;3504;52.616;13.238;2024-01-10T13:46:31;-1.06;55.37
6930;DHT22;3504;52.616;13.238;2024-01-10T13:51:32;-1.07;53.27
6930;DHT22;3504;52.616;13.238;2024-01-10T13:56:33;-1.06;53.12
6930;DHT22;3504;52.616;13.238;2024-01-10T14:01:34;-1.04;53.74
6930;DHT22;3504;52.616;13.238;2024-01-10T14:06:34;-1.00;54.74
6930;DHT22;3504;52.616;13.238;2024-01-10T14:11:35;-1.07;54.12
6930;DHT22;3504;52.616;13.238;2024-01-10T14:16:36;-1.09;53.99
6930;DHT22;3504;52.616;13.238;2024-01-10T14:21:36;-1.12;55.78
6930;DHT22;3504;52.616;13.238;2024-01-10T14:26:37;-1.17;56.15
6930;DHT22;3504;52.616;13.238;2024-01-10T14:31:38;-1.24;56.27
6930;DHT22;3504;52.616;13.238;2024-01-10T14:36:40;-1.30;55.94
6930;DHT22;3504;52.616;13.238;2024-01-10T14:41:40;-1.36;56.07
6930;DHT22;3504;52.616;13.238;2024-01-10T14:46:41;-1.38;57.27
6930;DHT22;3504;52.616;13.238;2024-01-10T14:51:42;-1.46;56.70
6930;DHT22;3504;52.616;13.238;2024-01-10T14:56:42;-1.48;57.85
6930;DHT22;3504;52.616;13.238;2024-01-10T15:01:45;-1.54;58.10
6930;DHT22;3504;52.616;13.238;2024-01-10T15:06:46;-1.61;57.91
6930;DHT22;3504;52.616;13.238;2024-01-10T15:11:46;-1.74;58.83
6930;DHT22;3504;52.616;13.238;2024-01-10T15:16:47;-1.81;59.31
6930;DHT22;3504;52.616;13.238;2024-01-10T15:21:48;-1.91;61.32
6930;DHT22;3504;52.616;13.238;2024-01-10T15:26:50;-1.92;61.12
6930;DHT22;3504;52.616;13.238;2024-01-10T15:31:51;-2.02;61.75
6930;DHT22;3504;52.616;13.238;2024-01-10T15:36:52;-2.09;62.36
6930;DHT22;3504;52.616;13.238;2024-01-10T15:41:52;-2.23;62.86
6930;DHT22;3504;52.616;13.238;2024-01-10T15:46:53;-2.32;63.14
6930;DHT22;3504;52.616;13.238;2024-01-10T15:51:57;-2.39;63.67
6930;DHT22;3504;52.616;13.238;2024-01-10T15:56:58;-2.47;64.06
6930;DHT22;3504;52.616;13.238;2024-01-10T16:01:59;-2.52;64.67
6930;DHT22;3504;52.616;13.238;2024-01-10T16:06:59;-2.56;65.02
6930;DHT22;3504;52.616;13.238;2024-01-10T16:12:00;-2.64;65.09
6930;DHT22;3504;52.616;13.238;2024-01-10T16:17:00;-2.70;65.51
6930;DHT22;3504;52.616;13.238;2024-01-10T16:22:01;-2.84;66.07
6930;DHT22;3504;52.616;13.238;2024-01-10T16:27:01;-2.87;66.04
6930;DHT22;3504;52.616;13.238;2024-01-10T16:32:02;-2.98;66.26
6930;DHT22;3504;52.616;13.238;2024-01-10T16:37:03;-3.05;66.48
6930;DHT22;3504;52.616;13.238;2024-01-10T16:42:04;-3.09;66.96
6930;DHT22;3504;52.616;13.238;2024-01-10T16:47:08;-3.19;67.25
6930;DHT22;3504;52.616;13.238;2024-01-10T16:52:09;-3.26;67.50
6930;DHT22;3504;52.616;13.238;2024-01-10T16:57:12;-3.37;67.78
6930;DHT22;3504;52.616;13.238;2024-01-10T17:02:13;-3.43;67.90
6930;DHT22;3504;52.616;13.238;2024-01-10T17:07:13;-3.49;68.24
6930;DHT22;3504;52.616;13.238;2024-01-10T17:12:14;-3.59;68.32
6930;DHT22;3504;52.616;13.238;2024-01-10T17:17:15;-3.66;68.44
6930;DHT22;3504;52.616;13.238;2024-01-10T17:22:16;-3.68;68.51
6930;DHT22;3504;52.616;13.238;2024-01-10T17:27:18;-4.02;68.96
6930;DHT22;3504;52.616;13.238;2024-01-10T17:32:19;-4.07;69.31
6930;DHT22;3504;52.616;13.238;2024-01-10T17:37:19;-4.32;69.68
6930;DHT22;3504;52.616;13.238;2024-01-10T17:42:21;-4.36;70.06
6930;DHT22;3504;52.616;13.238;2024-01-10T17:47:21;-4.35;70.17
6930;DHT22;3504;52.616;13.238;2024-01-10T17:52:23;-4.50;69.80
6930;DHT22;3504;52.616;13.238;2024-01-10T17:57:23;-4.49;70.12
6930;DHT22;3504;52.616;13.238;2024-01-10T18:02:26;-4.52;70.11
6930;DHT22;3504;52.616;13.238;2024-01-10T18:07:27;-4.59;70.15
6930;DHT22;3504;52.616;13.238;2024-01-10T18:12:28;-4.62;70.29
6930;DHT22;3504;52.616;13.238;2024-01-10T18:17:28;-4.79;70.27
6930;DHT22;3504;52.616;13.238;2024-01-10T18:22:29;-5.04;71.01
6930;DHT22;3504;52.616;13.238;2024-01-10T18:27:29;-5.17;71.60
6930;DHT22;3504;52.616;13.238;2024-01-10T18:32:30;-5.14;71.70
6930;DHT22;3504;52.616;13.238;2024-01-10T18:37:30;-5.10;71.49
6930;DHT22;3504;52.616;13.238;2024-01-10T18:42:34;-5.10;71.33
6930;DHT22;3504;52.616;13.238;2024-01-10T18:47:35;-5.11;71.20
6930;DHT22;3504;52.616;13.238;2024-01-10T18:52:35;-5.18;70.89
6930;DHT22;3504;52.616;13.238;2024-01-10T18:57:36;-5.41;72.01
6930;DHT22;3504;52.616;13.238;2024-01-10T19:02:37;-5.55;72.55
6930;DHT22;3504;52.616;13.238;2024-01-10T19:07:38;-5.54;72.55
6930;DHT22;3504;52.616;13.238;2024-01-10T19:12:38;-5.54;72.48
6930;DHT22;3504;52.616;13.238;2024-01-10T19:17:39;-5.54;72.36
6930;DHT22;3504;52.616;13.238;2024-01-10T19:22:40;-5.58;72.17
6930;DHT22;3504;52.616;13.238;2024-01-10T19:27:41;-5.58;72.28
6930;DHT22;3504;52.616;13.238;2024-01-10T19:32:41;-5.59;72.31
6930;DHT22;3504;52.616;13.238;2024-01-10T19:37:41;-5.66;72.20
6930;DHT22;3504;52.616;13.238;2024-01-10T19:42:42;-5.69;72.51
6930;DHT22;3504;52.616;13.238;2024-01-10T19:47:42;-5.70;72.39
6930;DHT22;3504;52.616;13.238;2024-01-10T19:52:43;-5.77;72.52
6930;DHT22;3504;52.616;13.238;2024-01-10T19:57:43;-5.82;72.55
6930;DHT22;3504;52.616;13.238;2024-01-10T20:02:44;-5.97;72.69
6930;DHT22;3504;52.616;13.238;2024-01-10T20:07:46;-6.06;73.39
6930;DHT22;3504;52.616;13.238;2024-01-10T20:12:50;-6.00;73.20
6930;DHT22;3504;52.616;13.238;2024-01-10T20:17:50;-6.03;73.11
6930;DHT22;3504;52.616;13.238;2024-01-10T20:22:51;-6.01;72.93
6930;DHT22;3504;52.616;13.238;2024-01-10T20:27:52;-6.10;72.92
6930;DHT22;3504;52.616;13.238;2024-01-10T20:32:52;-6.20;73.32
6930;DHT22;3504;52.616;13.238;2024-01-10T20:37:55;-6.38;74.20
6930;DHT22;3504;52.616;13.238;2024-01-10T20:42:57;-6.45;74.86
6930;DHT22;3504;52.616;13.238;2024-01-10T20:47:57;-6.47;74.91
6930;DHT22;3504;52.616;13.238;2024-01-10T20:53:00;-6.44;74.55
6930;DHT22;3504;52.616;13.238;2024-01-10T20:58:01;-6.44;74.09
6930;DHT22;3504;52.616;13.238;2024-01-10T21:03:03;-6.71;74.81
6930;DHT22;3504;52.616;13.238;2024-01-10T21:08:03;-6.79;75.15
6930;DHT22;3504;52.616;13.238;2024-01-10T21:13:04;-6.91;75.68
6930;DHT22;3504;52.616;13.238;2024-01-10T21:18:05;-6.92;75.30
6930;DHT22;3504;52.616;13.238;2024-01-10T21:23:05;-7.00;76.04
6930;DHT22;3504;52.616;13.238;2024-01-10T21:28:09;-6.92;75.88
6930;DHT22;3504;52.616;13.238;2024-01-10T21:33:10;-6.93;75.71
6930;DHT22;3504;52.616;13.238;2024-01-10T21:38:10;-6.86;75.52
6930;DHT22;3504;52.616;13.238;2024-01-10T21:43:11;-6.83;75.28
6930;DHT22;3504;52.616;13.238;2024-01-10T21:48:11;-6.81;75.10
6930;DHT22;3504;52.616;13.238;2024-01-10T21:53:12;-6.79;74.81
6930;DHT22;3504;52.616;13.238;2024-01-10T21:58:16;-6.79;74.86
6930;DHT22;3504;52.616;13.238;2024-01-10T22:03:17;-6.73;74.74
6930;DHT22;3504;52.616;13.238;2024-01-10T22:08:17;-6.79;74.53
6930;DHT22;3504;52.616;13.238;2024-01-10T22:13:18;-6.81;74.53
6930;DHT22;3504;52.616;13.238;2024-01-10T22:18:18;-6.83;74.85
6930;DHT22;3504;52.616;13.238;2024-01-10T22:23:19;-6.79;74.61
6930;DHT22;3504;52.616;13.238;2024-01-10T22:28:19;-6.79;74.61
6930;DHT22;3504;52.616;13.238;2024-01-10T22:33:20;-6.82;74.53
6930;DHT22;3504;52.616;13.238;2024-01-10T22:38:20;-6.89;74.36
6930;DHT22;3504;52.616;13.238;2024-01-10T22:43:21;-7.17;76.11
6930;DHT22;3504;52.616;13.238;2024-01-10T22:48:21;-7.16;76.04
6930;DHT22;3504;52.616;13.238;2024-01-10T22:53:22;-7.10;75.84
6930;DHT22;3504;52.616;13.238;2024-01-10T22:58:23;-7.12;75.69
6930;DHT22;3504;52.616;13.238;2024-01-10T23:03:26;-7.10;75.69
6930;DHT22;3504;52.616;13.238;2024-01-10T23:08:31;-7.12;75.66
6930;DHT22;3504;52.616;13.238;2024-01-10T23:13:32;-7.13;75.55
6930;DHT22;3504;52.616;13.238;2024-01-10T23:18:32;-7.19;76.26
6930;DHT22;3504;52.616;13.238;2024-01-10T23:23:33;-7.28;78.30
6930;DHT22;3504;52.616;13.238;2024-01-10T23:28:34;-7.23;78.30
6930;DHT22;3504;52.616;13.238;2024-01-10T23:33:35;-7.30;79.06
6930;DHT22;3504;52.616;13.238;2024-01-10T23:38:40;-7.31;80.22
6930;DHT22;3504;52.616;13.238;2024-01-10T23:43:41;-7.17;79.77
6930;DHT22;3504;52.616;13.238;2024-01-10T23:48:42;-7.03;79.39
6930;DHT22;3504;52.616;13.238;2024-01-10T23:53:42;-6.93;78.97
6930;DHT22;3504;52.616;13.238;2024-01-10T23:58:43;-6.82;78.94
